Time;durP1;ratioP1;P1;durP2;ratioP2;P2;SDS_P1;SDS_P2;PMS_P1;PMS_P2;Temp;Humidity;BMP_temperature;BMP_pressure;BME280_temperature;BME280_humidity;BME280_pressure;Samples;Min_cycle;Max_cycle;Signal;HPM_P1;HPM_P2
2022/08/18 00:01:44;;;;;;;11.73;10.50;;;;;;;21.23;49.39;100473.38;5054907;28;20049;-73
2022/08/18 00:04:12;;;;;;;9.93;9.07;;;;;;;21.12;49.45;100464.50;5055143;28;20048;-73
2022/08/18 00:06:59;;;;;;;10.23;9.52;;;;;;;21.19;49.43;100484.63;5045582;28;20535;-74
2022/08/18 00:09:26;;;;;;;9.98;9.35;;;;;;;21.23;49.13;100482.75;5034858;28;20080;-74
2022/08/18 00:12:01;;;;;;;10.63;9.50;;;;;;;21.37;49.28;100485.28;5044683;28;20460;-73
2022/08/18 00:14:28;;;;;;;9.93;8.98;;;;;;;20.99;49.27;100423.94;5054675;28;20126;-73
2022/08/18 00:16:55;;;;;;;9.82;9.15;;;;;;;21.18;49.11;100462.28;5054816;28;20041;-73
2022/08/18 00:19:23;;;;;;;10.75;9.93;;;;;;;21.13;49.26;100448.28;5054580;28;20099;-74
2022/08/18 00:22:12;;;;;;;10.65;9.80;;;;;;;21.06;48.83;100431.88;5054448;28;20055;-74
2022/08/18 00:24:43;;;;;;;11.07;10.18;;;;;;;21.41;48.91;100500.41;5054502;28;20049;-73
2022/08/18 00:27:20;;;;;;;10.95;9.60;;;;;;;21.25;48.97;100494.56;5054310;28;20140;-73
2022/08/18 00:29:52;;;;;;;11.55;10.43;;;;;;;20.96;49.10;100443.69;5053844;28;20045;-73
2022/08/18 00:32:26;;;;;;;10.13;9.40;;;;;;;21.26;48.89;100498.22;5054226;28;20567;-73
2022/08/18 00:34:53;;;;;;;10.95;10.07;;;;;;;21.08;49.13;100474.09;5054628;28;20045;-73
2022/08/18 00:37:21;;;;;;;12.85;9.48;;;;;;;21.22;49.13;100483.09;5054019;28;20041;-74
2022/08/18 00:39:52;;;;;;;11.02;9.95;;;;;;;21.09;49.05;100464.38;5052963;28;20586;-73
2022/08/18 00:42:26;;;;;;;11.30;10.40;;;;;;;20.87;48.95;100440.94;5054458;28;20060;-74
2022/08/18 00:45:02;;;;;;;11.00;10.10;;;;;;;21.05;49.11;100456.56;5053606;28;20551;-73
2022/08/18 00:47:30;;;;;;;10.38;9.68;;;;;;;20.81;49.10;100429.00;5054079;28;20044;-73
2022/08/18 00:50:21;;;;;;;10.50;9.63;;;;;;;21.13;49.10;100490.88;5053278;28;20048;-73
2022/08/18 00:52:58;;;;;;;11.45;10.30;;;;;;;21.02;48.96;100480.00;5053957;28;20057;-73
2022/08/18 00:55:29;;;;;;;10.93;10.10;;;;;;;21.04;49.22;100471.97;5054254;28;20087;-73
2022/08/18 00:58:08;;;;;;;10.90;9.85;;;;;;;21.11;49.25;100491.25;5053693;28;20482;-73
2022/08/18 01:00:36;;;;;;;11.00;10.20;;;;;;;20.88;49.24;100459.63;5053787;28;20080;-73
2022/08/18 01:03:11;;;;;;;11.43;10.45;;;;;;;20.82;48.91;100456.22;5053225;28;20045;-73
2022/08/18 01:05:45;;;;;;;11.25;9.65;;;;;;;20.48;49.11;100420.53;5052652;28;20506;-73
2022/08/18 01:08:14;;;;;;;10.50;9.75;;;;;;;20.59;49.36;100458.63;5034780;28;20049;-73
2022/08/18 01:10:44;;;;;;;10.80;9.70;;;;;;;20.61;49.59;100500.00;5033714;28;20100;-73
2022/08/18 01:13:11;;;;;;;10.50;9.80;;;;;;;20.35;49.68;100476.38;5034024;28;20049;-72
2022/08/18 01:15:39;;;;;;;11.60;10.57;;;;;;;20.17;49.92;100462.69;5034079;28;20049;-72
2022/08/18 01:23:58;;;;;;;9.98;9.38;;;;;;;19.85;50.11;100399.97;5033602;28;19975;-74
2022/08/18 01:26:29;;;;;;;10.95;10.02;;;;;;;20.31;50.21;100480.28;5033927;28;20521;-74
2022/08/18 01:29:03;;;;;;;10.18;9.57;;;;;;;19.92;50.17;100422.91;5036475;28;20115;-74
2022/08/18 01:31:45;;;;;;;11.13;10.13;;;;;;;20.17;50.16;100480.56;5034055;28;20050;-73
2022/08/18 01:34:23;;;;;;;;;;;;;;;19.92;50.80;100481.59;5033533;28;20466;-74
2022/08/18 01:36:53;;;;;;;10.32;9.38;;;;;;;19.92;50.58;100467.44;5033518;28;19921;-73
2022/08/18 01:39:22;;;;;;;11.35;10.35;;;;;;;20.05;50.43;100467.16;5033054;28;20064;-74
2022/08/18 01:42:11;;;;;;;12.45;10.32;;;;;;;19.83;50.54;100453.34;5033362;28;20075;-73
2022/08/18 01:44:41;;;;;;;9.75;9.15;;;;;;;19.86;50.35;100449.78;5033394;28;20072;-73
2022/08/18 01:47:10;;;;;;;12.25;11.38;;;;;;;20.04;50.67;100471.16;5033301;28;20080;-73
2022/08/18 01:49:41;;;;;;;11.57;10.68;;;;;;;20.07;50.25;100475.31;5033106;28;20080;-74
2022/08/18 01:52:16;;;;;;;11.77;10.80;;;;;;;20.02;50.36;100467.84;5033252;28;20077;-74
2022/08/18 01:54:43;;;;;;;11.52;10.82;;;;;;;20.05;50.30;100469.97;5033316;28;20506;-72
2022/08/18 01:57:12;;;;;;;10.90;10.30;;;;;;;19.93;50.43;100435.06;5032763;28;20080;-73
2022/08/18 01:59:40;;;;;;;11.85;10.63;;;;;;;20.22;49.96;100457.66;5031926;28;20057;-73
2022/08/18 02:02:13;;;;;;;10.70;9.88;;;;;;;20.08;49.77;100431.59;5032763;28;20099;-74
2022/08/18 02:04:45;;;;;;;9.82;9.20;;;;;;;20.27;49.53;100459.44;5032672;28;20049;-74
2022/08/18 02:07:13;;;;;;;10.93;9.95;;;;;;;20.28;49.64;100461.13;5047680;28;20042;-73
2022/08/18 02:09:42;;;;;;;10.82;9.98;;;;;;;20.27;49.67;100465.09;5032924;28;20072;-73
2022/08/18 02:12:10;;;;;;;10.07;9.27;;;;;;;19.89;49.55;100423.59;5052037;28;20068;-73
2022/08/18 02:14:38;;;;;;;9.35;8.77;;;;;;;19.95;49.63;100416.53;5051442;28;20081;-73
2022/08/18 02:17:08;;;;;;;10.75;9.82;;;;;;;19.65;49.65;100379.78;5052877;28;20048;-73
2022/08/18 02:19:39;;;;;;;;;;;;;;;19.85;50.46;100479.31;5052858;28;20563;-72
2022/08/18 02:22:09;;;;;;;10.10;9.40;;;;;;;19.84;50.25;100480.50;5052765;28;19920;-72
2022/08/18 02:24:37;;;;;;;9.88;9.10;;;;;;;19.77;50.46;100481.03;5052851;28;20118;-73
2022/08/18 02:27:05;;;;;;;9.93;9.23;;;;;;;19.57;50.18;100462.81;5051387;28;20057;-72
2022/08/18 02:29:32;;;;;;;10.07;9.20;;;;;;;19.30;50.40;100430.16;5052728;28;20490;-72
2022/08/18 02:32:02;;;;;;;;;;;;;;;19.42;50.87;100488.91;5043244;28;20049;-73
2022/08/18 02:34:29;;;;;;;10.43;9.52;;;;;;;19.26;50.56;100445.34;5032784;28;19925;-72
2022/08/18 02:36:59;;;;;;;13.00;10.15;;;;;;;18.89;50.59;100396.94;5032735;28;20053;-73
2022/08/18 02:39:27;;;;;;;;;;;;;;;19.21;51.02;100496.50;5032978;28;20045;-73
2022/08/18 02:41:54;;;;;;;11.07;10.05;;;;;;;19.29;50.74;100506.97;5032827;28;19928;-73
2022/08/18 02:44:21;;;;;;;11.05;10.18;;;;;;;19.22;51.01;100504.66;5041233;28;20072;-72
2022/08/18 02:46:52;;;;;;;11.13;10.13;;;;;;;19.21;50.89;100502.16;5055140;28;20045;-73
2022/08/18 02:49:20;;;;;;;10.13;9.43;;;;;;;18.52;50.98;100405.03;5056554;28;20048;-74
2022/08/18 02:51:46;;;;;;;11.85;10.85;;;;;;;18.75;51.44;100458.56;5056147;28;20057;-73
2022/08/18 02:54:13;;;;;;;11.93;11.00;;;;;;;18.82;51.74;100487.16;5056227;28;20098;-73
2022/08/18 02:56:41;;;;;;;11.85;10.95;;;;;;;18.73;51.98;100487.19;5045130;28;20533;-73
2022/08/18 02:59:20;;;;;;;15.93;10.90;;;;;;;18.74;51.80;100505.00;5036003;28;20049;-73
2022/08/18 03:01:50;;;;;;;11.00;10.20;;;;;;;18.66;52.44;100501.81;5034227;28;20498;-74
2022/08/18 03:04:21;;;;;;;;;;;;;;;18.54;52.25;100498.03;5036642;28;20286;-74
2022/08/18 03:06:55;;;;;;;12.13;11.02;;;;;;;18.56;52.05;100467.41;5035144;28;20020;-73
2022/08/18 03:09:22;;;;;;;10.68;9.90;;;;;;;18.77;52.45;100501.47;5036097;28;20053;-73
2022/08/18 03:11:49;;;;;;;10.82;9.98;;;;;;;18.69;52.09;100475.69;5034590;28;20049;-73
2022/08/18 03:14:16;;;;;;;11.50;10.68;;;;;;;18.89;52.27;100495.97;5036161;28;20616;-73
2022/08/18 03:16:45;;;;;;;11.80;10.57;;;;;;;18.99;52.42;100492.75;5035653;28;20053;-74
2022/08/18 03:19:19;;;;;;;11.57;10.85;;;;;;;19.00;51.98;100493.59;5036324;28;20061;-73
2022/08/18 03:21:47;;;;;;;10.77;10.07;;;;;;;19.00;51.97;100479.44;5035666;28;20049;-73
2022/08/18 03:24:14;;;;;;;11.15;10.13;;;;;;;18.86;51.87;100459.84;5035844;28;20045;-74
2022/08/18 03:26:48;;;;;;;10.75;9.82;;;;;;;18.96;52.25;100482.13;5035471;28;20509;-74
2022/08/18 03:29:16;;;;;;;11.40;10.50;;;;;;;19.01;52.01;100490.44;5034604;28;20422;-73
2022/08/18 03:31:44;;;;;;;11.63;10.63;;;;;;;18.92;52.20;100469.81;5015723;28;20057;-73
2022/08/18 03:34:11;;;;;;;11.63;10.60;;;;;;;18.39;52.29;100398.44;5030161;28;20405;-74
2022/08/18 03:36:38;;;;;;;10.95;10.15;;;;;;;19.00;52.40;100502.91;5034819;28;20057;-74
2022/08/18 03:39:09;;;;;;;10.48;9.75;;;;;;;18.96;52.15;100493.44;5035454;28;20123;-73
2022/08/18 03:41:39;;;;;;;10.88;10.05;;;;;;;18.62;52.07;100443.44;5035349;28;20563;-74
2022/08/18 03:44:25;;;;;;;11.60;10.90;;;;;;;18.72;52.41;100473.38;5035387;28;20046;-73
2022/08/18 03:46:52;;;;;;;13.80;12.80;;;;;;;18.62;52.60;100469.72;5034321;28;20482;-74
2022/08/18 03:49:19;;;;;;;12.10;11.05;;;;;;;18.81;52.69;100494.84;5032850;28;20088;-72
2022/08/18 03:51:47;;;;;;;11.68;10.82;;;;;;;18.74;52.23;100468.25;5035100;28;20081;-72
2022/08/18 03:54:16;;;;;;;11.98;10.65;;;;;;;18.98;52.59;100491.13;5020584;28;20183;-73
2022/08/18 03:56:45;;;;;;;12.07;11.05;;;;;;;18.97;52.12;100485.78;5035249;28;20084;-73
2022/08/18 03:59:18;;;;;;;11.38;10.57;;;;;;;19.07;52.14;100483.41;5050650;28;20065;-73
2022/08/18 04:01:48;;;;;;;11.02;10.40;;;;;;;19.17;51.81;100502.00;5032631;28;20486;-73
2022/08/18 04:04:22;;;;;;;10.82;9.95;;;;;;;19.06;51.98;100493.06;5035112;28;20060;-72
2022/08/18 04:06:53;;;;;;;11.25;10.32;;;;;;;18.84;52.27;100494.16;5033573;28;20053;-73
2022/08/18 04:09:23;;;;;;;10.63;10.02;;;;;;;18.46;52.56;100440.31;5035298;28;20057;-73
2022/08/18 04:11:50;;;;;;;11.50;10.52;;;;;;;18.73;52.46;100492.00;5034870;28;20065;-73
2022/08/18 04:14:20;;;;;;;11.95;10.80;;;;;;;18.67;52.47;100486.53;5034798;28;20046;-73
2022/08/18 04:16:47;;;;;;;11.05;10.25;;;;;;;18.52;52.69;100492.69;5034973;28;20119;-73
2022/08/18 04:19:16;;;;;;;10.93;10.13;;;;;;;17.93;53.11;100411.31;5034951;28;20391;-72
2022/08/18 04:21:55;;;;;;;11.15;10.35;;;;;;;17.83;53.21;100382.56;5034855;28;20403;-72
2022/08/18 04:24:24;;;;;;;11.35;10.35;;;;;;;18.45;53.26;100483.91;5030141;28;20100;-72
2022/08/18 04:26:55;;;;;;;12.15;11.10;;;;;;;18.46;53.18;100485.53;5040291;28;20489;-72
2022/08/18 04:29:22;;;;;;;12.07;10.98;;;;;;;18.21;53.37;100457.00;5034350;28;20049;-73
2022/08/18 04:31:50;;;;;;;12.88;11.88;;;;;;;18.47;53.20;100482.41;5034420;28;20068;-73
2022/08/18 04:34:19;;;;;;;12.35;11.23;;;;;;;18.45;53.07;100478.25;5034484;28;20528;-73
2022/08/18 04:36:48;;;;;;;12.75;11.63;;;;;;;18.13;53.26;100425.94;5034228;28;20050;-74
2022/08/18 04:39:15;;;;;;;13.40;12.35;;;;;;;18.35;53.17;100473.75;5034281;28;20092;-73
2022/08/18 04:41:42;;;;;;;13.80;12.77;;;;;;;18.36;53.32;100481.09;5034196;28;20050;-74
2022/08/18 04:44:11;;;;;;;13.40;12.40;;;;;;;18.29;53.27;100468.63;5045834;28;20397;-73
2022/08/18 04:46:41;;;;;;;13.00;11.68;;;;;;;17.97;53.22;100417.13;5054059;28;20048;-73
2022/08/18 04:49:09;;;;;;;;;;;;;;;18.16;53.86;100473.31;5054433;28;20082;-73
2022/08/18 04:51:43;;;;;;;12.05;11.27;;;;;;;18.34;53.39;100482.59;5054011;28;19977;-74
2022/08/18 04:54:35;;;;;;;12.00;11.07;;;;;;;18.35;53.41;100478.59;5054022;28;20094;-74
2022/08/18 04:57:09;;;;;;;13.82;11.02;;;;;;;18.28;53.53;100464.13;5053789;28;20497;-72
2022/08/18 04:59:37;;;;;;;10.88;10.13;;;;;;;18.46;53.65;100479.91;5053841;28;20053;-74
2022/08/18 05:02:09;;;;;;;12.05;11.10;;;;;;;18.38;53.31;100475.09;5036139;28;20057;-72
2022/08/18 05:04:45;;;;;;;13.15;11.77;;;;;;;18.10;53.77;100433.06;5033846;28;20509;-73
2022/08/18 05:07:16;;;;;;;12.50;11.55;;;;;;;18.42;53.49;100476.91;5033588;28;20050;-73
2022/08/18 05:09:43;;;;;;;14.35;13.15;;;;;;;18.33;53.75;100483.78;5033661;28;20095;-73
2022/08/18 05:12:13;;;;;;;12.93;11.80;;;;;;;18.44;53.78;100479.41;5033964;28;20050;-73
2022/08/18 05:14:43;;;;;;;13.38;12.50;;;;;;;18.48;53.46;100477.56;5033465;28;20049;-72
2022/08/18 05:17:11;;;;;;;12.98;11.98;;;;;;;18.47;53.29;100484.41;5036575;28;20053;-72
2022/08/18 05:19:38;;;;;;;12.70;11.60;;;;;;;18.31;53.50;100474.78;5053316;28;20057;-72
2022/08/18 05:22:12;;;;;;;12.77;11.88;;;;;;;18.41;53.51;100488.56;5052166;28;20088;-73
2022/08/18 05:24:40;;;;;;;13.00;11.52;;;;;;;18.42;53.45;100493.03;5053328;28;20045;-73
2022/08/18 05:27:07;;;;;;;13.57;12.63;;;;;;;18.38;53.30;100489.22;5053121;28;20142;-73
2022/08/18 05:29:35;;;;;;;13.25;12.15;;;;;;;18.37;53.48;100494.06;5053187;28;20053;-73
2022/08/18 05:32:12;;;;;;;13.13;11.93;;;;;;;18.39;53.20;100490.88;5045958;28;20064;-73
2022/08/18 05:35:06;;;;;;;12.85;11.82;;;;;;;18.33;53.19;100486.59;5042514;28;20669;-72
2022/08/18 05:37:51;;;;;;;14.40;13.27;;;;;;;18.05;53.25;100441.72;5052938;28;20123;-72
2022/08/18 05:40:23;;;;;;;12.48;11.68;;;;;;;18.33;53.39;100486.59;5053424;28;20060;-72
2022/08/18 05:42:50;;;;;;;15.70;14.55;;;;;;;18.08;53.50;100458.00;5053340;28;20056;-72
2022/08/18 05:45:18;;;;;;;13.48;12.43;;;;;;;18.47;53.13;100510.69;5053345;28;20049;-72
2022/08/18 05:47:45;;;;;;;13.35;12.45;;;;;;;18.39;52.96;100502.19;5053164;28;20044;-73
2022/08/18 05:50:18;;;;;;;13.27;12.32;;;;;;;18.41;52.99;100511.19;5053409;28;20110;-73
2022/08/18 05:52:51;;;;;;;12.88;12.07;;;;;;;18.40;53.17;100509.53;5054697;28;20049;-73
2022/08/18 05:58:32;;;;;;;13.65;12.48;;;;;;;18.28;53.38;100496.06;5053371;28;20227;-72
2022/08/18 06:01:04;;;;;;;13.48;12.52;;;;;;;18.49;53.19;100515.97;5045962;28;20080;-73
2022/08/18 06:03:36;;;;;;;12.40;11.60;;;;;;;18.41;53.04;100503.53;5032841;28;20127;-73
2022/08/18 06:06:18;;;;;;;13.48;12.27;;;;;;;18.31;53.44;100488.91;5032723;28;20055;-72
2022/08/18 06:09:24;;;;;;;14.35;12.20;;;;;;;18.49;53.25;100515.97;5033322;28;20048;-73
2022/08/18 06:12:07;;;;;;;12.82;12.02;;;;;;;18.27;52.92;100488.75;5031778;28;20077;-73
2022/08/18 06:14:37;;;;;;;12.57;11.60;;;;;;;18.52;53.18;100504.00;5031938;28;20072;-72
2022/08/18 06:17:15;;;;;;;12.60;11.80;;;;;;;18.69;52.65;100532.25;5032470;28;20123;-72
2022/08/18 06:19:53;;;;;;;11.63;10.82;;;;;;;18.21;52.65;100448.50;5033004;28;20461;-73
2022/08/18 06:22:50;;;;;;;13.02;11.93;;;;;;;18.81;52.43;100525.94;5032604;28;20049;-73
2022/08/18 06:25:46;;;;;;;;;;;;;;;18.84;52.86;100536.59;5023927;28;20057;-74
2022/08/18 06:28:15;;;;;;;13.27;12.27;;;;;;;19.04;52.25;100532.22;5017033;28;20274;-74
2022/08/18 06:30:55;;;;;;;12.93;12.05;;;;;;;19.21;51.96;100538.97;5048130;28;20459;-74
2022/08/18 06:33:34;;;;;;;;;;;;;;;19.27;52.21;100544.09;5032889;28;20060;-74
2022/08/18 06:36:17;;;;;;;13.05;11.57;;;;;;;18.98;51.76;100462.00;5032477;28;19944;-74
2022/08/18 06:39:14;;;;;;;13.05;11.95;;;;;;;19.65;51.59;100548.94;5032657;28;20128;-72
2022/08/18 06:41:45;;;;;;;11.57;10.68;;;;;;;19.95;51.28;100543.25;5048035;28;20077;-73
2022/08/18 06:44:15;;;;;;;13.00;12.13;;;;;;;19.88;50.80;100502.13;5051463;28;20489;-74
2022/08/18 06:47:02;;;;;;;10.95;10.20;;;;;;;20.40;50.88;100532.03;5052315;28;20049;-73
2022/08/18 06:49:35;;;;;;;13.88;12.95;;;;;;;20.71;50.27;100542.97;5052454;28;20056;-74
2022/08/18 06:52:17;;;;;;;13.68;12.35;;;;;;;20.95;50.08;100550.72;5067615;28;20524;-74
2022/08/18 06:54:44;;;;;;;13.15;12.00;;;;;;;21.15;49.31;100549.00;5052581;28;20547;-74
2022/08/18 06:57:24;;;;;;;11.70;11.10;;;;;;;21.48;49.10;100557.47;5051073;28;20056;-74
2022/08/18 07:00:00;;;;;;;12.02;11.15;;;;;;;21.74;48.57;100559.97;5052173;28;20073;-74
2022/08/18 07:02:36;;;;;;;12.85;11.95;;;;;;;22.04;48.60;100562.53;5032902;28;20049;-75
2022/08/18 07:05:07;;;;;;;11.82;11.05;;;;;;;22.33;48.00;100569.97;5033252;28;20049;-74
2022/08/18 07:07:38;;;;;;;11.70;10.90;;;;;;;22.43;47.70;100541.00;5032899;28;20053;-74
2022/08/18 07:10:34;;;;;;;12.57;11.68;;;;;;;22.69;47.61;100562.47;5032377;28;20057;-74
2022/08/18 07:13:15;;;;;;;12.45;11.52;;;;;;;22.85;47.55;100551.97;5032292;28;20135;-74
2022/08/18 07:15:44;;;;;;;13.20;12.27;;;;;;;23.16;46.98;100561.78;5032249;28;20103;-74
2022/08/18 07:18:12;;;;;;;16.40;15.30;;;;;;;23.26;46.67;100551.88;5013578;28;20462;-73
2022/08/18 07:20:52;;;;;;;13.07;12.05;;;;;;;23.68;45.93;100563.56;5012653;28;20057;-74
2022/08/18 07:23:25;;;;;;;12.10;11.20;;;;;;;23.97;45.34;100572.81;5012687;28;20108;-74
2022/08/18 07:26:12;;;;;;;11.80;11.10;;;;;;;24.22;44.81;100573.41;5012284;28;20050;-74
2022/08/18 07:28:43;;;;;;;12.27;11.45;;;;;;;24.48;44.48;100572.75;5012586;28;20050;-74
2022/08/18 07:31:30;;;;;;;11.93;11.20;;;;;;;24.63;44.21;100566.16;5016098;28;20054;-74
2022/08/18 07:34:04;;;;;;;11.60;10.80;;;;;;;24.90;43.30;100566.31;5026917;28;20077;-74
2022/08/18 07:36:37;;;;;;;11.38;10.68;;;;;;;25.19;43.12;100576.28;5035526;28;20049;-74
2022/08/18 07:39:14;;;;;;;10.90;10.27;;;;;;;25.00;43.06;100517.13;5035370;28;20082;-74
2022/08/18 07:41:47;;;;;;;11.70;11.00;;;;;;;25.53;42.42;100577.31;5035707;28;20119;-75
2022/08/18 07:44:32;;;;;;;11.85;10.63;;;;;;;25.29;42.47;100510.72;5035671;28;20053;-74
2022/08/18 07:47:12;;;;;;;11.00;10.25;;;;;;;25.62;41.86;100554.19;5035480;28;20054;-74
2022/08/18 07:49:43;;;;;;;12.77;11.88;;;;;;;25.93;41.64;100558.78;5050598;28;20532;-75
2022/08/18 07:52:45;;;;;;;10.75;10.05;;;;;;;26.23;41.37;100576.00;5015274;28;20057;-75
2022/08/18 07:55:15;;;;;;;10.85;10.10;;;;;;;26.48;40.93;100589.88;5015557;28;20438;-74
2022/08/18 07:57:46;;;;;;;;;;;;;;;26.38;42.49;100577.84;5015872;28;20049;-74
2022/08/18 08:00:42;;;;;;;12.38;11.43;;;;;;;26.66;40.99;100580.28;5027337;28;20373;-75
2022/08/18 08:03:41;;;;;;;10.95;10.25;;;;;;;26.79;40.67;100578.00;5034873;28;20045;-74
2022/08/18 08:06:12;;;;;;;10.60;9.77;;;;;;;26.96;40.22;100575.75;5034911;28;20049;-74
2022/08/18 08:08:43;;;;;;;10.85;9.75;;;;;;;27.17;39.66;100588.28;5049990;28;20076;-75
2022/08/18 08:11:34;;;;;;;10.88;10.18;;;;;;;27.36;39.70;100589.31;5054737;28;20049;-74
2022/08/18 08:14:18;;;;;;;11.00;10.27;;;;;;;27.57;38.82;100588.69;5055034;28;20095;-75
2022/08/18 08:17:12;;;;;;;10.95;10.25;;;;;;;27.78;38.64;100593.81;5054730;28;20131;-75
2022/08/18 08:20:07;;;;;;;12.25;11.43;;;;;;;27.88;38.28;100591.03;5053416;28;20128;-74
2022/08/18 08:22:51;;;;;;;11.43;10.57;;;;;;;27.99;38.56;100591.13;5054923;28;20549;-75
2022/08/18 08:25:36;;;;;;;12.10;11.32;;;;;;;28.08;38.15;100571.50;5041719;28;20049;-75
2022/08/18 08:28:13;;;;;;;12.25;11.40;;;;;;;28.43;37.69;100598.81;5034245;28;20045;-75
2022/08/18 08:31:03;;;;;;;14.57;13.57;;;;;;;28.52;37.19;100576.31;5033549;28;20559;-75
2022/08/18 08:33:58;;;;;;;13.27;12.48;;;;;;;28.47;37.40;100559.44;5030916;28;20132;-74
2022/08/18 08:36:37;;;;;;;13.57;12.77;;;;;;;28.83;36.68;100602.72;5034806;28;20402;-75
2022/08/18 08:39:17;;;;;;;12.00;11.27;;;;;;;28.99;36.51;100599.47;5034215;28;20080;-75
2022/08/18 08:41:50;;;;;;;11.10;10.40;;;;;;;28.70;35.75;100518.09;5033353;28;20123;-74
2022/08/18 08:44:39;;;;;;;11.68;10.88;;;;;;;29.26;35.71;100583.56;5034310;28;20194;-75
2022/08/18 08:47:31;;;;;;;11.45;10.85;;;;;;;29.54;35.24;100581.97;5034078;28;20059;-75
2022/08/18 08:50:25;;;;;;;10.95;10.30;;;;;;;29.72;35.61;100594.34;5033326;28;20456;-74
2022/08/18 08:53:01;;;;;;;10.73;10.05;;;;;;;29.73;34.61;100551.97;5025727;28;20088;-73
2022/08/18 08:55:43;;;;;;;10.50;9.73;;;;;;;29.97;34.29;100577.03;5034223;28;20077;-75
2022/08/18 08:58:21;;;;;;;9.85;9.25;;;;;;;30.21;34.36;100592.66;5033879;28;20096;-75
2022/08/18 09:00:52;;;;;;;10.38;9.77;;;;;;;30.36;34.34;100596.38;5034395;28;20115;-74
2022/08/18 09:03:42;;;;;;;10.15;9.55;;;;;;;30.49;33.69;100593.84;5049694;28;20625;-75
2022/08/18 09:06:21;;;;;;;13.23;12.18;;;;;;;30.67;33.99;100594.63;5034151;28;20057;-74
2022/08/18 09:09:09;;;;;;;11.23;10.38;;;;;;;30.71;33.85;100588.84;5049060;28;20045;-74
2022/08/18 09:12:01;;;;;;;10.55;9.60;;;;;;;30.77;33.32;100597.88;5034221;28;20049;-74
2022/08/18 09:14:52;;;;;;;10.45;9.88;;;;;;;30.92;32.88;100600.31;5032403;28;20571;-74
2022/08/18 09:17:58;;;;;;;10.05;9.30;;;;;;;30.56;33.06;100524.66;5013820;28;20100;-74
2022/08/18 09:20:52;;;;;;;9.77;9.07;;;;;;;31.31;32.84;100598.44;5014155;28;20399;-75
2022/08/18 09:23:24;;;;;;;9.30;8.80;;;;;;;31.21;32.07;100553.97;5013862;28;20058;-74
2022/08/18 09:26:17;;;;;;;10.88;9.85;;;;;;;31.66;31.56;100600.28;5013632;28;20258;-74
2022/08/18 09:28:58;;;;;;;9.55;8.95;;;;;;;31.38;31.90;100555.97;5013548;28;20096;-74
2022/08/18 09:31:27;;;;;;;10.18;9.50;;;;;;;31.73;31.32;100582.91;5013576;28;20084;-74
2022/08/18 09:33:57;;;;;;;10.18;9.68;;;;;;;32.07;30.78;100611.13;5032739;28;20049;-75
2022/08/18 09:36:54;;;;;;;9.65;9.05;;;;;;;31.84;30.86;100562.59;5033607;28;20115;-74
2022/08/18 09:42:32;;;;;;;10.13;9.10;;;;;;;32.08;30.90;100567.34;5033629;28;20053;-73
2022/08/18 09:45:31;;;;;;;11.70;10.98;;;;;;;32.40;30.83;100617.38;5033193;28;20154;-74
2022/08/18 09:48:22;;;;;;;10.15;9.15;;;;;;;32.53;30.36;100627.19;5031979;28;20053;-74
2022/08/18 09:51:10;;;;;;;9.20;8.68;;;;;;;32.69;30.52;100623.69;5038046;28;20377;-74
2022/08/18 09:53:45;;;;;;;10.43;9.75;;;;;;;32.85;30.26;100606.53;5032716;28;20053;-74
2022/08/18 09:56:36;;;;;;;10.48;9.80;;;;;;;32.74;30.14;100579.84;5032943;28;20520;-73
2022/08/18 09:59:37;;;;;;;10.07;9.32;;;;;;;32.84;30.31;100612.78;5032873;28;20560;-74
2022/08/18 10:02:09;;;;;;;10.45;9.85;;;;;;;32.97;29.89;100611.78;5030930;28;20092;-74
2022/08/18 10:04:50;;;;;;;9.73;9.23;;;;;;;33.06;29.82;100614.19;5022761;28;20049;-74
2022/08/18 10:07:29;;;;;;;9.70;9.20;;;;;;;33.18;29.56;100616.47;5033235;28;20132;-75
2022/08/18 10:10:41;;;;;;;10.20;9.70;;;;;;;33.39;29.48;100608.72;5013091;28;20088;-74
2022/08/18 10:14:22;;;;;;;10.65;10.10;;;;;;;33.06;29.55;100556.31;5012729;28;20056;-74
2022/08/18 10:16:56;;;;;;;11.00;10.38;;;;;;;33.47;29.08;100589.97;5013224;28;20080;-74
2022/08/18 10:20:09;;;;;;;11.73;10.93;;;;;;;33.43;28.68;100603.69;5012705;28;20506;-74
2022/08/18 10:22:55;;;;;;;10.40;9.90;;;;;;;33.26;28.34;100606.41;5014333;28;20112;-74
2022/08/18 10:25:46;;;;;;;11.13;10.32;;;;;;;33.23;28.28;100603.56;5032844;28;20057;-75
2022/08/18 10:29:02;;;;;;;9.98;9.48;;;;;;;33.15;28.09;100599.16;5032573;28;20425;-75
2022/08/18 10:32:04;;;;;;;10.98;10.38;;;;;;;33.22;28.35;100590.38;4996982;28;20050;-74
2022/08/18 10:34:36;;;;;;;9.75;9.25;;;;;;;33.31;28.08;100595.63;5032284;28;20103;-74
2022/08/18 10:37:26;;;;;;;10.60;9.90;;;;;;;33.34;28.24;100598.47;5032234;28;20560;-74
2022/08/18 10:40:03;;;;;;;10.63;10.02;;;;;;;33.01;27.95;100502.63;5032013;28;20068;-75
2022/08/18 10:42:48;;;;;;;10.20;9.48;;;;;;;33.69;27.75;100588.44;5031273;28;20049;-75
2022/08/18 10:45:22;;;;;;;;;;;;;;;33.55;29.50;100588.66;5033594;28;20084;-75
2022/08/18 10:48:05;;;;;;;13.07;12.38;;;;;;;33.79;28.30;100583.72;5033846;28;19927;-74
2022/08/18 10:50:50;;;;;;;10.82;10.13;;;;;;;33.85;27.59;100572.47;5032938;28;20053;-73
2022/08/18 10:53:41;;;;;;;9.80;9.30;;;;;;;33.51;28.33;100544.47;5031260;28;20045;-74
2022/08/18 10:56:34;;;;;;;9.63;9.13;;;;;;;33.88;28.02;100583.97;5027518;28;20050;-73
2022/08/18 10:59:20;;;;;;;9.77;9.27;;;;;;;34.00;27.32;100597.03;5031663;28;20050;-74
2022/08/18 11:02:25;;;;;;;9.93;9.30;;;;;;;33.99;27.63;100583.78;5032328;28;20080;-75
2022/08/18 11:04:54;;;;;;;11.07;10.38;;;;;;;34.02;27.27;100582.94;5034912;28;20056;-74
2022/08/18 11:07:30;;;;;;;9.93;9.38;;;;;;;33.62;26.63;100513.25;5036307;28;20128;-75
2022/08/18 11:11:00;;;;;;;11.30;10.50;;;;;;;34.13;27.49;100585.63;5035749;28;20125;-74
2022/08/18 11:13:46;;;;;;;9.63;8.88;;;;;;;34.11;27.14;100591.84;5036449;28;20140;-74
2022/08/18 11:16:35;;;;;;;10.05;9.40;;;;;;;34.03;27.28;100578.78;5015191;28;20050;-75
2022/08/18 11:19:13;;;;;;;9.63;9.02;;;;;;;34.02;26.70;100559.75;5015895;28;20085;-75
2022/08/18 11:21:48;;;;;;;9.90;9.40;;;;;;;34.31;26.45;100567.91;5016269;28;20049;-75
2022/08/18 11:24:42;;;;;;;9.32;8.85;;;;;;;34.49;26.69;100568.34;5015961;28;20093;-74
2022/08/18 11:27:23;;;;;;;10.43;9.82;;;;;;;34.61;26.61;100549.50;5015844;28;20063;-75
2022/08/18 11:29:51;;;;;;;10.63;10.02;;;;;;;34.76;26.10;100564.53;5015942;28;20073;-74
2022/08/18 11:32:34;;;;;;;10.98;10.32;;;;;;;34.82;25.97;100540.34;5042412;28;20089;-75
2022/08/18 11:35:05;;;;;;;11.43;10.73;;;;;;;35.03;25.90;100559.38;5016211;28;20057;-75
2022/08/18 11:37:45;;;;;;;10.80;10.00;;;;;;;35.22;25.52;100566.41;5015678;28;20046;-73
2022/08/18 11:40:37;;;;;;;9.57;9.07;;;;;;;35.12;25.84;100536.38;5015334;28;20518;-74
2022/08/18 11:43:31;;;;;;;10.57;10.07;;;;;;;35.32;25.86;100539.22;5015388;28;20499;-75
2022/08/18 11:46:24;;;;;;;14.80;14.00;;;;;;;35.61;25.95;100547.25;5029831;28;20499;-74
2022/08/18 11:48:56;;;;;;;;;;;;;;;35.42;27.14;100557.66;5044990;28;20049;-74
2022/08/18 11:51:30;;;;;;;8.93;8.32;;;;;;;35.46;25.81;100476.25;5055090;28;19920;-74
2022/08/18 11:54:20;;;;;;;9.80;9.30;;;;;;;36.25;25.50;100563.00;5036173;28;20049;-73
2022/08/18 11:56:50;;;;;;;10.30;9.80;;;;;;;36.51;24.20;100529.06;5035325;28;20059;-74
2022/08/18 11:59:27;;;;;;;10.40;9.90;;;;;;;37.17;23.34;100549.94;5034916;28;20046;-73
2022/08/18 12:02:20;;;;;;;10.10;9.60;;;;;;;37.64;23.04;100546.34;5047879;28;20494;-74
2022/08/18 12:05:02;;;;;;;9.82;9.32;;;;;;;37.89;22.76;100498.00;5035230;28;20414;-74
2022/08/18 12:07:42;;;;;;;10.15;9.48;;;;;;;38.40;21.80;100522.00;5015777;28;20050;-74
2022/08/18 12:10:26;;;;;;;10.02;9.52;;;;;;;39.00;21.49;100538.47;5015094;28;20509;-73
2022/08/18 12:13:01;;;;;;;10.20;9.48;;;;;;;39.44;20.45;100508.34;5015269;28;20111;-74
2022/08/18 12:15:34;;;;;;;10.40;9.77;;;;;;;40.22;19.95;100524.59;5014802;28;20053;-74